Jenkintown, Pennsylvania
Current Conditions -  °F | °C
As of 6:54 AM on Friday 19 Dec 2014 (Local Time) from KPNE Reporting Station
Overcast Overcast  
Wind Chill: 31°   Ceiling: 3400
Heat Index: 38°   Visibility: 10mi
Dew Point: 24°   Wind: 9mph
Humidity: 57%   Direction: 280°W
Pressure: 30.06"   Gusts: NA
Location:  40.1°N, 75.13°W
Report Text: KPNE 191154Z AUTO 28008KT 10SM OVC034 03/M04 A3006 RMK AO2 SLP180 T00331044 10033 20028 53008 TSNO $
Loading
Personal Weather Stations






























Interactive Weather Map New forecast layout! Learn more

10-Day Weather Forecast

Advertisements
Track Severe Weather on mobile